Time,TemperatureF,DewpointF,PressureIn,WindDirection,WindDirectionDegrees,WindSpeedMPH,WindSpeedGustMPH,Humidity,HourlyPrecipIn,Conditions,Clouds,dailyrainin,SolarRadiationWatts/m^2,SoftwareType,DateUTC
2013-11-19 00:02:00,62.8,39.9,30.18,ESE,112,5.8,6.0,43,0.00,CLR,,0.00,0.0,WeatherDisplay:10.37,2013-11-19 06:02:00,
2013-11-19 00:07:00,62.8,39.9,30.18,ESE,112,6.1,6.1,43,0.00,CLR,,0.00,0.0,WeatherDisplay:10.37,2013-11-19 06:07:00,
2013-11-19 00:12:00,62.8,39.9,30.18,ESE,112,6.1,6.1,43,0.00,CLR,,0.00,0.0,WeatherDisplay:10.37,2013-11-19 06:12:00,
2013-11-19 00:17:00,62.6,39.8,30.18,ESE,112,6.9,6.9,43,0.00,CLR,,0.00,0.0,WeatherDisplay:10.37,2013-11-19 06:17:00,
2013-11-19 00:22:00,62.4,40.2,30.18,ESE,112,10.4,10.4,44,0.00,CLR,,0.00,0.0,WeatherDisplay:10.37,2013-11-19 06:22:00,
2013-11-19 00:27:00,62.4,40.2,30.17,ESE,112,6.9,6.9,44,0.00,CLR,,0.00,0.0,WeatherDisplay:10.37,2013-11-19 06:27:00,
2013-11-19 00:32:00,62.4,40.2,30.17,ESE,112,9.2,9.2,44,0.00,CLR,,0.00,0.0,WeatherDisplay:10.37,2013-11-19 06:32:00,
2013-11-19 00:37:00,62.2,40.0,30.17,ESE,112,12.4,12.4,44,0.00,CLR,,0.00,0.0,WeatherDisplay:10.37,2013-11-19 06:37:00,
2013-11-19 00:42:00,62.4,40.8,30.17,East,90,9.2,9.2,45,0.00,CLR,,0.00,0.0,WeatherDisplay:10.37,2013-11-19 06:42:00,
2013-11-19 00:47:00,62.1,40.5,30.15,ESE,112,8.1,8.1,45,0.00,CLR,,0.00,0.0,WeatherDisplay:10.37,2013-11-19 06:47:00,
2013-11-19 00:52:00,62.1,40.5,30.15,ENE,68,12.7,12.7,45,0.00,CLR,,0.00,0.0,WeatherDisplay:10.37,2013-11-19 06:52:00,
2013-11-19 00:57:00,62.1,41.0,30.15,SSE,158,6.9,7.6,46,0.00,CLR,,0.00,0.0,WeatherDisplay:10.37,2013-11-19 06:57:00,
2013-11-19 01:02:00,61.9,40.9,30.15,East,90,9.2,9.2,46,0.00,CLR,,0.00,0.0,WeatherDisplay:10.37,2013-11-19 07:02:00,
2013-11-19 01:07:00,62.1,41.0,30.16,SE,135,8.1,8.1,46,0.00,CLR,,0.00,0.0,WeatherDisplay:10.37,2013-11-19 07:07:00,
2013-11-19 01:12:00,61.7,40.7,30.16,ESE,112,8.1,8.1,46,0.00,CLR,,0.00,0.0,WeatherDisplay:10.37,2013-11-19 07:12:00,
2013-11-19 01:17:00,61.7,40.7,30.16,ENE,68,4.6,4.9,46,0.00,CLR,,0.00,0.0,WeatherDisplay:10.37,2013-11-19 07:17:00,
2013-11-19 01:22:00,61.7,41.3,30.16,ESE,112,5.8,5.8,47,0.00,CLR,,0.00,0.0,WeatherDisplay:10.37,2013-11-19 07:22:00,
2013-11-19 01:27:00,61.5,41.1,30.17,SE,135,3.5,3.9,47,0.00,CLR,,0.00,0.0,WeatherDisplay:10.37,2013-11-19 07:27:00,
2013-11-19 01:32:00,61.7,41.3,30.17,ENE,68,6.9,6.9,47,0.00,CLR,,0.00,0.0,WeatherDisplay:10.37,2013-11-19 07:32:00,
2013-11-19 01:37:00,61.5,41.1,30.17,SE,135,5.8,5.8,47,0.00,CLR,,0.00,0.0,WeatherDisplay:10.37,2013-11-19 07:37:00,
2013-11-19 01:42:00,61.5,41.6,30.17,East,90,6.9,6.9,48,0.00,CLR,,0.00,0.0,WeatherDisplay:10.37,2013-11-19 07:42:00,
2013-11-19 01:47:00,61.5,41.6,30.15,ESE,112,4.6,4.6,48,0.00,CLR,,0.00,0.0,WeatherDisplay:10.37,2013-11-19 07:47:00,
2013-11-19 01:52:00,61.5,41.6,30.15,ESE,112,5.8,5.8,48,0.00,CLR,,0.00,0.0,WeatherDisplay:10.37,2013-11-19 07:52:00,
2013-11-19 01:57:00,61.3,41.5,30.15,ESE,112,2.3,3.2,48,0.00,CLR,,0.00,0.0,WeatherDisplay:10.37,2013-11-19 07:57:00,
2013-11-19 02:02:00,61.3,41.5,30.15,ESE,112,6.9,6.9,48,0.00,CLR,,0.00,0.0,WeatherDisplay:10.37,2013-11-19 08:02:00,
2013-11-19 02:07:00,61.2,41.3,30.16,ESE,112,5.8,5.8,48,0.00,CLR,,0.00,0.0,WeatherDisplay:10.37,2013-11-19 08:07:00,
2013-11-19 02:12:00,61.3,41.5,30.16,ESE,112,3.5,3.5,48,0.00,CLR,,0.00,0.0,WeatherDisplay:10.37,2013-11-19 08:12:00,
2013-11-19 02:17:00,61.3,42.0,30.16,ENE,68,2.3,2.6,49,0.00,CLR,,0.00,0.0,WeatherDisplay:10.37,2013-11-19 08:17:00,
2013-11-19 02:22:00,61.2,41.8,30.16,ENE,68,3.5,3.5,49,0.00,CLR,,0.00,0.0,WeatherDisplay:10.37,2013-11-19 08:22:00,
2013-11-19 02:27:00,61.0,41.7,30.16,ESE,112,4.6,4.6,49,0.00,CLR,,0.00,0.0,WeatherDisplay:10.37,2013-11-19 08:27:00,
2013-11-19 02:32:00,61.0,41.7,30.16,ENE,68,6.9,6.9,49,0.00,CLR,,0.00,0.0,WeatherDisplay:10.37,2013-11-19 08:32:00,
2013-11-19 02:37:00,60.8,41.5,30.16,East,90,6.9,6.9,49,0.00,CLR,,0.00,0.0,WeatherDisplay:10.37,2013-11-19 08:37:00,
2013-11-19 02:42:00,61.0,41.7,30.16,ESE,112,6.9,6.9,49,0.00,CLR,,0.00,0.0,WeatherDisplay:10.37,2013-11-19 08:42:00,
2013-11-19 02:47:00,60.8,41.5,30.16,ENE,68,4.6,4.6,49,0.00,CLR,,0.00,0.0,WeatherDisplay:10.37,2013-11-19 08:47:00,
2013-11-19 02:52:00,60.8,41.5,30.16,ESE,112,3.5,3.6,49,0.00,CLR,,0.00,0.0,WeatherDisplay:10.37,2013-11-19 08:52:00,
2013-11-19 02:57:00,60.6,41.9,30.16,East,90,4.9,4.9,50,0.00,CLR,,0.00,0.0,WeatherDisplay:10.37,2013-11-19 08:57:00,
2013-11-19 03:02:00,60.6,41.9,30.16,SE,135,4.6,4.6,50,0.00,CLR,,0.00,0.0,WeatherDisplay:10.37,2013-11-19 09:02:00,
2013-11-19 03:07:00,60.6,41.9,30.16,SE,135,4.6,4.6,50,0.00,CLR,,0.00,0.0,WeatherDisplay:10.37,2013-11-19 09:07:00,
2013-11-19 03:12:00,60.6,41.9,30.16,ESE,112,2.3,3.1,50,0.00,CLR,,0.00,0.0,WeatherDisplay:10.37,2013-11-19 09:12:00,
2013-11-19 03:17:00,60.4,41.7,30.16,ENE,68,4.6,4.6,50,0.00,CLR,,0.00,0.0,WeatherDisplay:10.37,2013-11-19 09:17:00,
2013-11-19 03:22:00,60.4,42.2,30.16,ENE,68,2.6,2.6,51,0.00,CLR,,0.00,0.0,WeatherDisplay:10.37,2013-11-19 09:22:00,
2013-11-19 03:27:00,60.3,42.0,30.16,ENE,68,2.3,2.3,51,0.00,CLR,,0.00,0.0,WeatherDisplay:10.37,2013-11-19 09:27:00,
2013-11-19 03:32:00,60.3,42.0,30.16,ENE,68,4.6,4.6,51,0.00,CLR,,0.00,0.0,WeatherDisplay:10.37,2013-11-19 09:32:00,
2013-11-19 03:37:00,60.1,41.9,30.16,East,90,3.5,3.5,51,0.00,CLR,,0.00,0.0,WeatherDisplay:10.37,2013-11-19 09:37:00,
2013-11-19 03:42:00,60.3,42.0,30.16,ESE,112,2.3,3.1,51,0.00,CLR,,0.00,0.0,WeatherDisplay:10.37,2013-11-19 09:42:00,
2013-11-19 03:47:00,60.1,41.9,30.17,ESE,112,2.3,2.3,51,0.00,CLR,,0.00,0.0,WeatherDisplay:10.37,2013-11-19 09:47:00,
2013-11-19 03:52:00,60.3,42.0,30.17,East,90,2.3,2.3,51,0.00,CLR,,0.00,0.0,WeatherDisplay:10.37,2013-11-19 09:52:00,
2013-11-19 03:57:00,60.1,42.4,30.17,East,90,2.3,2.3,52,0.00,CLR,,0.00,0.0,WeatherDisplay:10.37,2013-11-19 09:57:00,
2013-11-19 04:02:00,60.3,42.6,30.17,NNE,22,0.0,0.9,52,0.00,CLR,,0.00,0.0,WeatherDisplay:10.37,2013-11-19 10:02:00,
2013-11-19 04:07:00,60.3,42.6,30.18,ENE,68,2.3,2.3,52,0.00,CLR,,0.00,0.0,WeatherDisplay:10.37,2013-11-19 10:07:00,
2013-11-19 04:12:00,60.3,42.6,30.18,North,0,2.8,2.8,52,0.00,CLR,,0.00,0.0,WeatherDisplay:10.37,2013-11-19 10:12:00,
2013-11-19 04:17:00,60.1,42.9,30.18,ENE,68,1.2,1.2,53,0.00,CLR,,0.00,0.0,WeatherDisplay:10.37,2013-11-19 10:17:00,
2013-11-19 04:22:00,60.3,42.6,30.18,East,90,3.5,3.5,52,0.00,CLR,,0.00,0.0,WeatherDisplay:10.37,2013-11-19 10:22:00,
2013-11-19 04:27:00,60.1,42.4,30.19,ESE,112,4.6,4.6,52,0.00,CLR,,0.00,0.0,WeatherDisplay:10.37,2013-11-19 10:27:00,
2013-11-19 04:32:00,60.1,42.4,30.19,NNE,22,4.6,4.6,52,0.00,CLR,,0.00,0.0,WeatherDisplay:10.37,2013-11-19 10:32:00,
2013-11-19 04:37:00,59.9,42.2,30.19,South,180,3.5,3.5,52,0.00,CLR,,0.00,0.0,WeatherDisplay:10.37,2013-11-19 10:37:00,
2013-11-19 04:43:00,59.9,42.2,30.19,ESE,112,4.6,4.6,52,0.00,CLR,,0.00,0.0,WeatherDisplay:10.37,2013-11-19 10:43:00,
2013-11-19 04:48:00,59.9,42.7,30.19,ENE,68,1.2,2.6,53,0.00,CLR,,0.00,0.0,WeatherDisplay:10.37,2013-11-19 10:48:00,
2013-11-19 04:53:00,59.9,42.2,30.19,NNW,338,2.3,2.3,52,0.00,CLR,,0.00,0.0,WeatherDisplay:10.37,2013-11-19 10:53:00,
2013-11-19 04:58:00,59.7,42.1,30.19,ESE,112,2.3,2.3,52,0.00,CLR,,0.00,0.0,WeatherDisplay:10.37,2013-11-19 10:58:00,
2013-11-19 05:03:00,59.7,42.1,30.19,ESE,112,5.8,5.8,52,0.00,CLR,,0.00,0.0,WeatherDisplay:10.37,2013-11-19 11:03:00,
2013-11-19 05:08:00,59.9,42.2,30.18,ESE,112,4.6,4.6,52,0.00,CLR,,0.00,0.0,WeatherDisplay:10.37,2013-11-19 11:08:00,
2013-11-19 05:13:00,59.7,42.1,30.18,ESE,112,4.6,4.6,52,0.00,CLR,,0.00,0.0,WeatherDisplay:10.37,2013-11-19 11:13:00,
2013-11-19 05:18:00,59.5,41.9,30.18,ESE,112,3.5,3.5,52,0.00,CLR,,0.00,0.0,WeatherDisplay:10.37,2013-11-19 11:18:00,
2013-11-19 05:23:00,59.5,41.9,30.18,East,90,4.8,4.8,52,0.00,CLR,,0.00,0.0,WeatherDisplay:10.37,2013-11-19 11:23:00,
2013-11-19 05:28:00,59.5,41.9,30.19,East,90,2.3,2.8,52,0.00,CLR,,0.00,0.0,WeatherDisplay:10.37,2013-11-19 11:28:00,
2013-11-19 05:33:00,59.5,41.9,30.19,SE,135,3.8,3.8,52,0.00,CLR,,0.00,0.0,WeatherDisplay:10.37,2013-11-19 11:33:00,
2013-11-19 05:38:00,59.4,41.7,30.19,ESE,112,6.1,6.1,52,0.00,CLR,,0.00,0.0,WeatherDisplay:10.37,2013-11-19 11:38:00,
2013-11-19 05:43:00,59.5,41.9,30.19,SSW,202,3.5,3.6,52,0.00,CLR,,0.00,0.0,WeatherDisplay:10.37,2013-11-19 11:43:00,
2013-11-19 05:48:00,59.4,41.7,30.18,ENE,68,5.8,5.8,52,0.00,CLR,,0.00,0.0,WeatherDisplay:10.37,2013-11-19 11:48:00,
2013-11-19 05:53:00,59.4,41.2,30.18,ENE,68,3.8,3.8,51,0.00,CLR,,0.00,0.0,WeatherDisplay:10.37,2013-11-19 11:53:00,
2013-11-19 05:58:00,59.2,41.1,30.18,ESE,112,4.7,4.7,51,0.00,CLR,,0.00,0.0,WeatherDisplay:10.37,2013-11-19 11:58:00,
2013-11-19 06:03:00,59.2,41.1,30.18,ESE,112,4.6,4.6,51,0.00,CLR,,0.00,0.0,WeatherDisplay:10.37,2013-11-19 12:03:00,
2013-11-19 06:08:00,59.2,41.1,30.18,ESE,112,4.9,4.9,51,0.00,CLR,,0.00,0.0,WeatherDisplay:10.37,2013-11-19 12:08:00,
2013-11-19 06:13:00,59.0,40.9,30.18,ESE,112,6.9,6.9,51,0.00,CLR,,0.00,0.0,WeatherDisplay:10.37,2013-11-19 12:13:00,
2013-11-19 06:18:00,59.2,40.5,30.18,East,90,4.6,4.6,50,0.00,CLR,,0.00,0.0,WeatherDisplay:10.37,2013-11-19 12:18:00,
2013-11-19 06:23:00,59.0,40.4,30.18,ESE,112,5.8,5.8,50,0.00,CLR,,0.00,0.0,WeatherDisplay:10.37,2013-11-19 12:23:00,
2013-11-19 06:28:00,59.0,40.4,30.18,ESE,112,5.8,5.8,50,0.00,CLR,,0.00,0.0,WeatherDisplay:10.37,2013-11-19 12:28:00,
2013-11-19 06:33:00,58.8,40.2,30.18,SE,135,5.8,5.8,50,0.00,CLR,,0.00,0.0,WeatherDisplay:10.37,2013-11-19 12:33:00,
2013-11-19 06:38:00,58.8,40.2,30.18,East,90,4.6,4.6,50,0.00,CLR,,0.00,0.0,WeatherDisplay:10.37,2013-11-19 12:38:00,
2013-11-19 06:43:00,58.8,39.7,30.18,ESE,112,5.8,5.8,49,0.00,CLR,,0.00,0.0,WeatherDisplay:10.37,2013-11-19 12:43:00,
2013-11-19 06:48:00,58.6,40.0,30.19,East,90,5.8,5.8,50,0.00,CLR,,0.00,0.0,WeatherDisplay:10.37,2013-11-19 12:48:00,
2013-11-19 06:53:00,58.6,39.5,30.19,East,90,4.6,4.6,49,0.00,CLR,,0.00,0.0,WeatherDisplay:10.37,2013-11-19 12:53:00,
2013-11-19 06:58:00,58.8,39.7,30.19,ESE,112,4.6,4.6,49,0.00,CLR,,0.00,0.0,WeatherDisplay:10.37,2013-11-19 12:58:00,
2013-11-19 07:03:00,58.5,39.9,30.19,SE,135,4.6,4.6,50,0.00,OVC,,0.00,0.0,WeatherDisplay:10.37,2013-11-19 13:03:00,
2013-11-19 07:08:00,58.5,39.4,30.19,ENE,68,4.6,4.6,49,0.00,OVC,,0.00,0.0,WeatherDisplay:10.37,2013-11-19 13:08:00,
2013-11-19 07:13:00,58.6,40.0,30.19,ESE,112,4.8,4.8,50,0.00,OVC,,0.00,0.0,WeatherDisplay:10.37,2013-11-19 13:13:00,
2013-11-19 07:18:00,58.6,40.0,30.19,East,90,3.5,3.5,50,0.00,OVC,,0.00,0.0,WeatherDisplay:10.37,2013-11-19 13:18:00,
2013-11-19 07:23:00,58.6,40.0,30.19,East,90,6.9,6.9,50,0.00,OVC,,0.00,0.0,WeatherDisplay:10.37,2013-11-19 13:23:00,
2013-11-19 07:28:00,58.6,39.5,30.20,ESE,112,4.6,4.6,49,0.00,OVC,,0.00,0.0,WeatherDisplay:10.37,2013-11-19 13:28:00,
2013-11-19 07:33:00,58.5,39.4,30.20,SE,135,3.5,3.7,49,0.00,OVC,,0.00,0.0,WeatherDisplay:10.37,2013-11-19 13:33:00,
2013-11-19 07:38:00,58.6,39.5,30.20,East,90,3.5,3.5,49,0.00,OVC,,0.00,0.0,WeatherDisplay:10.37,2013-11-19 13:38:00,
2013-11-19 07:43:00,58.6,39.5,30.20,ESE,112,4.6,4.6,49,0.00,OVC,,0.00,0.0,WeatherDisplay:10.37,2013-11-19 13:43:00,
2013-11-19 07:48:00,58.6,39.5,30.20,ESE,112,4.6,4.6,49,0.00,OVC,,0.00,0.0,WeatherDisplay:10.37,2013-11-19 13:48:00,
2013-11-19 07:53:00,58.6,39.5,30.20,ENE,68,4.6,4.6,49,0.00,OVC,,0.00,0.0,WeatherDisplay:10.37,2013-11-19 13:53:00,
2013-11-19 07:58:00,58.5,39.4,30.20,East,90,3.5,4.1,49,0.00,OVC,,0.00,0.0,WeatherDisplay:10.37,2013-11-19 13:58:00,
2013-11-19 08:03:00,58.6,39.5,30.20,ESE,112,4.6,4.6,49,0.00,OVC,,0.00,0.0,WeatherDisplay:10.37,2013-11-19 14:03:00,
2013-11-19 08:08:00,58.6,39.5,30.19,ESE,112,6.9,6.9,49,0.00,OVC,,0.00,0.0,WeatherDisplay:10.37,2013-11-19 14:08:00,
2013-11-19 08:13:00,58.8,39.7,30.19,SE,135,5.8,5.8,49,0.00,OVC,,0.00,0.0,WeatherDisplay:10.37,2013-11-19 14:13:00,
2013-11-19 08:18:00,58.8,39.2,30.19,ESE,112,6.9,6.9,48,0.00,OVC,,0.00,0.0,WeatherDisplay:10.37,2013-11-19 14:18:00,
2013-11-19 08:24:00,58.8,39.2,30.19,ESE,112,5.8,5.8,48,0.00,OVC,,0.00,0.0,WeatherDisplay:10.37,2013-11-19 14:24:00,
2013-11-19 08:28:00,59.2,39.5,30.19,ESE,112,5.8,5.8,48,0.00,OVC,,0.00,0.0,WeatherDisplay:10.37,2013-11-19 14:28:00,
2013-11-19 08:33:00,59.2,39.5,30.19,East,90,8.1,8.1,48,0.00,OVC,,0.00,0.0,WeatherDisplay:10.37,2013-11-19 14:33:00,
2013-11-19 08:38:00,59.5,39.8,30.19,ESE,112,8.1,8.1,48,0.00,OVC,,0.00,0.0,WeatherDisplay:10.37,2013-11-19 14:38:00,
2013-11-19 08:43:00,59.5,39.8,30.19,SE,135,8.5,8.5,48,0.00,OVC,,0.00,0.0,WeatherDisplay:10.37,2013-11-19 14:43:00,
2013-11-19 08:48:00,59.5,39.8,30.19,East,90,7.1,7.1,48,0.00,OVC,,0.00,10.0,WeatherDisplay:10.37,2013-11-19 14:48:00,
2013-11-19 08:53:00,59.9,40.1,30.19,SE,135,6.9,6.9,48,0.00,OVC,,0.00,10.0,WeatherDisplay:10.37,2013-11-19 14:53:00,
2013-11-19 08:58:00,59.7,39.4,30.19,SE,135,6.9,6.9,47,0.00,OVC,,0.00,20.0,WeatherDisplay:10.37,2013-11-19 14:58:00,
2013-11-19 09:03:00,60.1,39.8,30.19,ESE,112,10.7,10.7,47,0.00,OVC,,0.00,20.0,WeatherDisplay:10.37,2013-11-19 15:03:00,
2013-11-19 09:08:00,60.3,39.9,30.20,ESE,112,9.2,9.2,47,0.00,OVC,,0.00,10.0,WeatherDisplay:10.37,2013-11-19 15:08:00,
2013-11-19 09:13:00,60.1,39.8,30.20,ESE,112,5.8,6.3,47,0.00,OVC,,0.00,10.0,WeatherDisplay:10.37,2013-11-19 15:13:00,
2013-11-19 09:18:00,60.3,39.9,30.20,SE,135,5.8,5.8,47,0.00,OVC,,0.00,10.0,WeatherDisplay:10.37,2013-11-19 15:18:00,
2013-11-19 09:23:00,60.6,39.7,30.20,NE,45,5.8,5.8,46,0.00,OVC,,0.00,10.0,WeatherDisplay:10.37,2013-11-19 15:23:00,
2013-11-19 09:28:00,60.6,39.7,30.18,ESE,112,8.1,8.1,46,0.00,OVC,,0.00,10.0,WeatherDisplay:10.37,2013-11-19 15:28:00,
2013-11-19 09:33:00,60.4,39.0,30.18,SSE,158,8.1,8.1,45,0.00,OVC,,0.00,10.0,WeatherDisplay:10.37,2013-11-19 15:33:00,
2013-11-19 09:38:00,60.6,39.1,30.18,ESE,112,6.9,6.9,45,0.00,OVC,,0.00,10.0,WeatherDisplay:10.37,2013-11-19 15:38:00,
2013-11-19 09:43:00,61.0,38.9,30.18,SE,135,4.6,5.8,44,0.00,OVC,,0.00,10.0,WeatherDisplay:10.37,2013-11-19 15:43:00,
2013-11-19 09:48:00,61.2,39.1,30.19,SSE,158,8.1,8.1,44,0.00,OVC,,0.00,10.0,WeatherDisplay:10.37,2013-11-19 15:48:00,
2013-11-19 09:53:00,61.3,39.2,30.19,ESE,112,5.5,5.5,44,0.00,OVC,,0.00,10.0,WeatherDisplay:10.37,2013-11-19 15:53:00,
2013-11-19 09:58:00,61.3,39.2,30.19,SE,135,8.4,8.4,44,0.00,OVC,,0.00,0.0,WeatherDisplay:10.37,2013-11-19 15:58:00,
2013-11-19 10:03:00,61.5,38.8,30.19,SE,135,11.8,11.8,43,0.00,OVC,,0.00,10.0,WeatherDisplay:10.37,2013-11-19 16:03:00,
2013-11-19 10:08:00,61.5,38.8,30.18,NNE,22,9.2,9.2,43,0.00,OVC,,0.00,10.0,WeatherDisplay:10.37,2013-11-19 16:08:00,
2013-11-19 10:13:00,61.7,38.4,30.18,SE,135,8.4,8.4,42,0.00,OVC,,0.00,0.0,WeatherDisplay:10.37,2013-11-19 16:13:00,
2013-11-19 10:18:00,62.1,38.7,30.18,SSE,158,11.5,11.5,42,0.00,OVC,,0.00,10.0,WeatherDisplay:10.37,2013-11-19 16:18:00,
2013-11-19 10:23:00,62.1,38.7,30.18,SE,135,10.9,10.9,42,0.00,OVC,,0.00,20.0,WeatherDisplay:10.37,2013-11-19 16:23:00,
2013-11-19 10:28:00,62.4,38.4,30.18,ESE,112,8.3,8.3,41,0.00,OVC,,0.00,10.0,WeatherDisplay:10.37,2013-11-19 16:28:00,
2013-11-19 10:33:00,62.2,38.2,30.18,South,180,6.9,6.9,41,0.00,OVC,,0.00,0.0,WeatherDisplay:10.37,2013-11-19 16:33:00,
2013-11-19 10:38:00,62.4,39.0,30.18,ESE,112,6.9,6.9,42,0.00,OVC,,0.00,0.0,WeatherDisplay:10.37,2013-11-19 16:38:00,
2013-11-19 10:43:00,62.8,38.7,30.18,ESE,112,6.9,6.9,41,0.00,OVC,,0.00,0.0,WeatherDisplay:10.37,2013-11-19 16:43:00,
2013-11-19 10:48:00,63.0,38.9,30.17,SSE,158,8.1,8.1,41,0.00,OVC,,0.00,10.0,WeatherDisplay:10.37,2013-11-19 16:48:00,
2013-11-19 10:53:00,63.5,38.7,30.17,SSE,158,9.2,9.2,40,0.00,OVC,,0.00,10.0,WeatherDisplay:10.37,2013-11-19 16:53:00,
2013-11-19 10:58:00,63.5,38.7,30.17,SSE,158,8.1,8.1,40,0.00,OVC,,0.00,10.0,WeatherDisplay:10.37,2013-11-19 16:58:00,
2013-11-19 11:03:00,63.7,38.2,30.17,SE,135,4.6,5.8,39,0.00,OVC,,0.00,10.0,WeatherDisplay:10.37,2013-11-19 17:03:00,
2013-11-19 11:08:00,63.9,37.7,30.17,ESE,112,9.2,9.2,38,0.00,OVC,,0.00,0.0,WeatherDisplay:10.37,2013-11-19 17:08:00,
2013-11-19 11:13:00,63.9,37.7,30.17,SE,135,6.9,6.9,38,0.00,OVC,,0.00,10.0,WeatherDisplay:10.37,2013-11-19 17:13:00,
2013-11-19 11:18:00,63.9,37.7,30.17,SE,135,6.9,6.9,38,0.00,OVC,,0.00,0.0,WeatherDisplay:10.37,2013-11-19 17:18:00,
2013-11-19 11:23:00,64.4,37.5,30.17,SE,135,12.7,12.7,37,0.00,OVC,,0.00,10.0,WeatherDisplay:10.37,2013-11-19 17:23:00,
2013-11-19 11:28:00,64.4,37.5,30.16,SE,135,8.5,8.5,37,0.00,OVC,,0.00,10.0,WeatherDisplay:10.37,2013-11-19 17:28:00,
2013-11-19 11:33:00,64.6,37.7,30.16,ESE,112,7.2,7.2,37,0.00,OVC,,0.00,10.0,WeatherDisplay:10.37,2013-11-19 17:33:00,
2013-11-19 11:35:00,64.6,37.7,30.16,East,90,6.9,6.9,37,0.00,OVC,,0.00,10.0,WeatherDisplay:10.37,2013-11-19 17:35:00,
2013-11-19 11:40:00,64.9,38.0,30.16,ESE,112,8.1,8.1,37,0.00,OVC,,0.00,10.0,WeatherDisplay:10.37,2013-11-19 17:40:00,
2013-11-19 11:45:00,64.9,37.3,30.16,SE,135,9.2,9.2,36,0.00,OVC,,0.00,10.0,WeatherDisplay:10.37,2013-11-19 17:45:00,
2013-11-19 11:50:00,65.1,37.5,30.15,ESE,112,6.9,6.9,36,0.00,OVC,,0.00,0.0,WeatherDisplay:10.37,2013-11-19 17:50:00,
2013-11-19 11:55:00,65.1,37.5,30.15,SSE,158,6.9,6.9,36,0.00,OVC,,0.00,10.0,WeatherDisplay:10.37,2013-11-19 17:55:00,
2013-11-19 12:00:00,65.3,36.9,30.15,SSE,158,6.9,6.9,35,0.00,OVC,,0.00,10.0,WeatherDisplay:10.37,2013-11-19 18:00:00,
2013-11-19 12:05:00,65.3,37.6,30.15,ESE,112,3.8,5.1,36,0.00,OVC,,0.00,10.0,WeatherDisplay:10.37,2013-11-19 18:05:00,
2013-11-19 12:10:00,65.3,37.6,30.14,ESE,112,3.8,5.1,36,0.00,OVC,,0.00,10.0,WeatherDisplay:10.37,2013-11-19 18:10:00,
2013-11-19 12:15:00,65.8,38.1,30.14,ESE,112,6.9,6.9,36,0.00,OVC,,0.00,10.0,WeatherDisplay:10.37,2013-11-19 18:15:00,
2013-11-19 12:20:00,65.8,37.4,30.14,SW,225,4.6,5.2,35,0.00,OVC,,0.00,10.0,WeatherDisplay:10.37,2013-11-19 18:20:00,
2013-11-19 12:25:00,66.0,37.6,30.14,ESE,112,5.8,5.8,35,0.00,OVC,,0.00,10.0,WeatherDisplay:10.37,2013-11-19 18:25:00,
2013-11-19 12:30:00,66.0,37.6,30.12,South,180,5.8,5.8,35,0.00,OVC,,0.00,10.0,WeatherDisplay:10.37,2013-11-19 18:30:00,
2013-11-19 12:35:00,66.0,37.6,30.12,SE,135,2.3,3.3,35,0.00,OVC,,0.00,0.0,WeatherDisplay:10.37,2013-11-19 18:35:00,
2013-11-19 12:40:00,66.4,37.9,30.12,ESE,112,4.6,4.6,35,0.00,OVC,,0.00,0.0,WeatherDisplay:10.37,2013-11-19 18:40:00,
2013-11-19 12:45:00,66.4,37.9,30.12,ESE,112,0.0,3.7,35,0.00,OVC,,0.00,0.0,WeatherDisplay:10.37,2013-11-19 18:45:00,
2013-11-19 12:50:00,66.6,38.0,30.11,SSE,158,4.7,4.7,35,0.00,OVC,,0.00,0.0,WeatherDisplay:10.37,2013-11-19 18:50:00,
2013-11-19 12:55:00,66.7,37.5,30.11,ESE,112,8.1,8.1,34,0.00,OVC,,0.00,0.0,WeatherDisplay:10.37,2013-11-19 18:55:00,
2013-11-19 13:00:00,66.7,37.5,30.11,ENE,68,4.8,4.8,34,0.00,OVC,,0.00,0.0,WeatherDisplay:10.37,2013-11-19 19:00:00,
2013-11-19 13:05:00,66.7,36.7,30.11,SW,225,6.9,6.9,33,0.00,OVC,,0.00,0.0,WeatherDisplay:10.37,2013-11-19 19:05:00,
2013-11-19 13:10:00,66.7,37.5,30.10,SE,135,5.8,5.8,34,0.00,OVC,,0.00,0.0,WeatherDisplay:10.37,2013-11-19 19:10:00,
2013-11-19 13:15:00,67.1,37.8,30.10,East,90,8.1,8.1,34,0.00,OVC,,0.00,10.0,WeatherDisplay:10.37,2013-11-19 19:15:00,
2013-11-19 13:20:00,67.1,37.8,30.10,NNW,338,6.9,6.9,34,0.00,OVC,,0.00,10.0,WeatherDisplay:10.37,2013-11-19 19:20:00,
2013-11-19 13:25:00,66.7,37.5,30.10,SSW,202,6.9,6.9,34,0.00,OVC,,0.00,0.0,WeatherDisplay:10.37,2013-11-19 19:25:00,
2013-11-19 13:30:00,66.7,37.5,30.07,ESE,112,5.8,5.8,34,0.00,OVC,,0.00,0.0,WeatherDisplay:10.37,2013-11-19 19:30:00,
2013-11-19 13:35:00,67.1,37.8,30.07,WSW,248,5.8,5.8,34,0.00,OVC,,0.00,10.0,WeatherDisplay:10.37,2013-11-19 19:35:00,
2013-11-19 13:40:00,67.1,37.8,30.07,SSE,158,5.8,5.8,34,0.00,OVC,,0.00,10.0,WeatherDisplay:10.37,2013-11-19 19:40:00,
2013-11-19 13:45:00,67.3,37.9,30.07,ESE,112,5.8,5.8,34,0.00,OVC,,0.00,10.0,WeatherDisplay:10.37,2013-11-19 19:45:00,
2013-11-19 13:50:00,67.3,37.9,30.07,SE,135,5.9,5.9,34,0.00,OVC,,0.00,10.0,WeatherDisplay:10.37,2013-11-19 19:50:00,
2013-11-19 13:55:00,67.8,38.4,30.07,East,90,3.5,4.3,34,0.00,OVC,,0.00,10.0,WeatherDisplay:10.37,2013-11-19 19:55:00,
2013-11-19 14:00:00,67.8,38.4,30.07,East,90,8.1,8.1,34,0.00,OVC,,0.00,10.0,WeatherDisplay:10.37,2013-11-19 20:00:00,
2013-11-19 14:05:00,67.6,38.3,30.07,SE,135,10.4,10.4,34,0.00,OVC,,0.00,10.0,WeatherDisplay:10.37,2013-11-19 20:05:00,
2013-11-19 14:10:00,67.8,38.4,30.06,ESE,112,9.2,9.2,34,0.00,OVC,,0.00,0.0,WeatherDisplay:10.37,2013-11-19 20:10:00,
2013-11-19 14:15:00,67.8,38.4,30.06,SE,135,5.8,5.8,34,0.00,OVC,,0.00,0.0,WeatherDisplay:10.37,2013-11-19 20:15:00,
2013-11-19 14:20:00,68.0,37.8,30.06,SE,135,8.1,8.1,33,0.00,OVC,,0.00,0.0,WeatherDisplay:10.37,2013-11-19 20:20:00,
2013-11-19 14:25:00,68.0,37.8,30.06,SSE,158,5.8,5.8,33,0.00,OVC,,0.00,0.0,WeatherDisplay:10.37,2013-11-19 20:25:00,
2013-11-19 14:30:00,68.4,38.9,30.04,South,180,4.6,4.9,34,0.00,OVC,,0.00,0.0,WeatherDisplay:10.37,2013-11-19 20:30:00,
2013-11-19 14:35:00,68.5,38.3,30.04,SSE,158,9.2,9.2,33,0.00,OVC,,0.00,0.0,WeatherDisplay:10.37,2013-11-19 20:35:00,
2013-11-19 14:40:00,68.5,37.5,30.04,SE,135,5.8,5.8,32,0.00,OVC,,0.00,0.0,WeatherDisplay:10.37,2013-11-19 20:40:00,
2013-11-19 14:45:00,68.7,37.7,30.04,ESE,112,9.9,9.9,32,0.00,OVC,,0.00,10.0,WeatherDisplay:10.37,2013-11-19 20:45:00,
2013-11-19 14:50:00,69.6,38.4,30.04,ESE,112,10.4,10.4,32,0.00,OVC,,0.00,0.0,WeatherDisplay:10.37,2013-11-19 20:50:00,
2013-11-19 14:55:00,69.4,37.5,30.04,SSE,158,5.8,6.2,31,0.00,OVC,,0.00,0.0,WeatherDisplay:10.37,2013-11-19 20:55:00,
2013-11-19 15:00:00,69.3,37.3,30.04,East,90,8.1,8.1,31,0.00,OVC,,0.00,0.0,WeatherDisplay:10.37,2013-11-19 21:00:00,
2013-11-19 15:05:00,69.6,37.6,30.04,ESE,112,4.9,4.9,31,0.00,OVC,,0.00,0.0,WeatherDisplay:10.37,2013-11-19 21:05:00,
2013-11-19 15:10:00,69.4,37.5,30.03,ESE,112,7.1,7.1,31,0.00,OVC,,0.00,0.0,WeatherDisplay:10.37,2013-11-19 21:10:00,
2013-11-19 15:15:00,69.4,37.5,30.03,SE,135,4.6,4.9,31,0.00,OVC,,0.00,0.0,WeatherDisplay:10.37,2013-11-19 21:15:00,
2013-11-19 15:20:00,69.4,36.6,30.03,SSE,158,6.9,6.9,30,0.00,OVC,,0.00,0.0,WeatherDisplay:10.37,2013-11-19 21:20:00,
2013-11-19 15:25:00,69.6,36.8,30.03,SSE,158,6.9,6.9,30,0.00,OVC,,0.00,0.0,WeatherDisplay:10.37,2013-11-19 21:25:00,
2013-11-19 15:30:00,69.4,36.6,30.02,SE,135,9.2,9.2,30,0.00,OVC,,0.00,0.0,WeatherDisplay:10.37,2013-11-19 21:30:00,
2013-11-19 15:35:00,69.4,36.6,30.02,ESE,112,8.1,8.1,30,0.00,OVC,,0.00,0.0,WeatherDisplay:10.37,2013-11-19 21:35:00,
2013-11-19 15:40:00,69.4,36.6,30.02,SE,135,6.9,6.9,30,0.00,OVC,,0.00,0.0,WeatherDisplay:10.37,2013-11-19 21:40:00,
2013-11-19 15:45:00,69.6,36.8,30.02,East,90,9.7,9.7,30,0.00,OVC,,0.00,0.0,WeatherDisplay:10.37,2013-11-19 21:45:00,
2013-11-19 15:50:00,69.4,36.6,30.02,SE,135,5.8,5.8,30,0.00,OVC,,0.00,0.0,WeatherDisplay:10.37,2013-11-19 21:50:00,
2013-11-19 15:55:00,69.4,37.5,30.02,SE,135,5.8,5.8,31,0.00,OVC,,0.00,0.0,WeatherDisplay:10.37,2013-11-19 21:55:00,
2013-11-19 16:00:00,69.3,36.5,30.02,ESE,112,6.9,6.9,30,0.00,OVC,,0.00,0.0,WeatherDisplay:10.37,2013-11-19 22:00:00,
2013-11-19 16:05:00,69.3,37.3,30.02,SSE,158,5.8,5.8,31,0.00,OVC,,0.00,0.0,WeatherDisplay:10.37,2013-11-19 22:05:00,
2013-11-19 16:10:00,69.1,36.3,30.03,SE,135,8.1,8.1,30,0.00,OVC,,0.00,0.0,WeatherDisplay:10.37,2013-11-19 22:10:00,
2013-11-19 16:15:00,69.1,37.2,30.03,WNW,292,4.9,5.3,31,0.00,OVC,,0.00,0.0,WeatherDisplay:10.37,2013-11-19 22:15:00,
2013-11-19 16:20:00,68.7,36.8,30.03,South,180,4.9,4.9,31,0.00,OVC,,0.00,10.0,WeatherDisplay:10.37,2013-11-19 22:20:00,
2013-11-19 16:25:00,69.3,36.5,30.03,SSE,158,8.1,8.1,30,0.00,OVC,,0.00,10.0,WeatherDisplay:10.37,2013-11-19 22:25:00,
2013-11-19 16:30:00,69.3,36.5,30.03,ENE,68,6.9,6.9,30,0.00,OVC,,0.00,10.0,WeatherDisplay:10.37,2013-11-19 22:30:00,
2013-11-19 16:35:00,69.3,36.5,30.03,East,90,6.9,6.9,30,0.00,OVC,,0.00,10.0,WeatherDisplay:10.37,2013-11-19 22:35:00,
2013-11-19 16:40:00,68.5,36.7,30.03,SE,135,8.1,8.1,31,0.00,OVC,,0.00,10.0,WeatherDisplay:10.37,2013-11-19 22:40:00,
2013-11-19 16:46:00,68.5,36.7,30.03,SSE,158,10.4,10.4,31,0.00,OVC,,0.00,10.0,WeatherDisplay:10.37,2013-11-19 22:46:00,
2013-11-19 16:51:00,68.0,36.2,30.03,ESE,112,8.1,8.1,31,0.00,OVC,,0.00,10.0,WeatherDisplay:10.37,2013-11-19 22:51:00,
2013-11-19 16:56:00,68.0,36.2,30.03,SE,135,8.1,8.1,31,0.00,OVC,,0.00,10.0,WeatherDisplay:10.37,2013-11-19 22:56:00,
2013-11-19 17:01:00,67.8,36.9,30.03,SE,135,4.6,4.9,32,0.00,OVC,,0.00,10.0,WeatherDisplay:10.37,2013-11-19 23:01:00,
2013-11-19 17:06:00,67.8,36.9,30.03,SSW,202,8.1,8.1,32,0.00,OVC,,0.00,10.0,WeatherDisplay:10.37,2013-11-19 23:06:00,
2013-11-19 17:11:00,67.3,36.4,30.01,SE,135,8.1,8.1,32,0.00,OVC,,0.00,0.0,WeatherDisplay:10.37,2013-11-19 23:11:00,
2013-11-19 17:16:00,67.3,36.4,30.01,ESE,112,5.8,5.8,32,0.00,OVC,,0.00,0.0,WeatherDisplay:10.37,2013-11-19 23:16:00,
2013-11-19 17:21:00,67.1,37.0,30.01,SW,225,7.0,7.0,33,0.00,OVC,,0.00,0.0,WeatherDisplay:10.37,2013-11-19 23:21:00,
2013-11-19 17:26:00,67.1,37.0,30.01,ESE,112,4.6,4.6,33,0.00,OVC,,0.00,0.0,WeatherDisplay:10.37,2013-11-19 23:26:00,
2013-11-19 17:31:00,66.7,36.7,30.01,ESE,112,5.2,5.2,33,0.00,OVC,,0.00,0.0,WeatherDisplay:10.37,2013-11-19 23:31:00,
2013-11-19 17:36:00,66.7,37.5,30.01,SE,135,3.5,3.8,34,0.00,OVC,,0.00,0.0,WeatherDisplay:10.37,2013-11-19 23:36:00,
2013-11-19 17:41:00,66.4,37.1,30.01,East,90,4.6,4.6,34,0.00,OVC,,0.00,0.0,WeatherDisplay:10.37,2013-11-19 23:41:00,
2013-11-19 17:46:00,66.2,37.7,30.01,ESE,112,4.6,4.6,35,0.00,OVC,,0.00,0.0,WeatherDisplay:10.37,2013-11-19 23:46:00,
2013-11-19 17:51:00,66.0,37.6,30.01,SE,135,3.5,3.5,35,0.00,OVC,,0.00,10.0,WeatherDisplay:10.37,2013-11-19 23:51:00,
2013-11-19 17:56:00,66.0,37.6,30.01,SSE,158,2.3,3.3,35,0.00,CLR,,0.00,0.0,WeatherDisplay:10.37,2013-11-19 23:56:00,
2013-11-19 18:01:00,65.8,38.1,30.01,ESE,112,4.6,4.6,36,0.00,CLR,,0.00,10.0,WeatherDisplay:10.37,2013-11-20 00:01:00,
2013-11-19 18:06:00,65.7,38.0,30.01,ESE,112,3.5,3.5,36,0.00,CLR,,0.00,10.0,WeatherDisplay:10.37,2013-11-20 00:06:00,
2013-11-19 18:11:00,65.5,38.5,30.02,ESE,112,4.6,4.6,37,0.00,CLR,,0.00,10.0,WeatherDisplay:10.37,2013-11-20 00:11:00,
2013-11-19 18:16:00,65.1,38.2,30.02,SE,135,4.6,4.6,37,0.00,CLR,,0.00,10.0,WeatherDisplay:10.37,2013-11-20 00:16:00,
2013-11-19 18:21:00,64.9,38.7,30.02,SE,135,5.8,5.8,38,0.00,CLR,,0.00,10.0,WeatherDisplay:10.37,2013-11-20 00:21:00,
2013-11-19 18:26:00,64.9,38.7,30.02,ESE,112,5.8,5.8,38,0.00,CLR,,0.00,10.0,WeatherDisplay:10.37,2013-11-20 00:26:00,
2013-11-19 18:31:00,64.6,38.4,30.02,SE,135,6.9,6.9,38,0.00,CLR,,0.00,0.0,WeatherDisplay:10.37,2013-11-20 00:31:00,
2013-11-19 18:36:00,64.4,38.2,30.02,ESE,112,5.1,5.1,38,0.00,CLR,,0.00,0.0,WeatherDisplay:10.37,2013-11-20 00:36:00,
2013-11-19 18:41:00,64.2,38.7,30.02,ESE,112,6.0,6.0,39,0.00,CLR,,0.00,0.0,WeatherDisplay:10.37,2013-11-20 00:41:00,
2013-11-19 18:46:00,64.2,38.7,30.02,SE,135,5.8,5.8,39,0.00,CLR,,0.00,0.0,WeatherDisplay:10.37,2013-11-20 00:46:00,
2013-11-19 18:51:00,63.9,38.4,30.02,ESE,112,3.5,3.6,39,0.00,CLR,,0.00,0.0,WeatherDisplay:10.37,2013-11-20 00:51:00,
2013-11-19 18:56:00,63.9,39.1,30.02,ESE,112,4.6,4.6,40,0.00,CLR,,0.00,0.0,WeatherDisplay:10.37,2013-11-20 00:56:00,
2013-11-19 19:01:00,63.5,38.7,30.02,SSE,158,3.8,3.8,40,0.00,CLR,,0.00,0.0,WeatherDisplay:10.37,2013-11-20 01:01:00,
2013-11-19 19:06:00,63.5,38.7,30.02,ESE,112,3.8,4.3,40,0.00,CLR,,0.00,0.0,WeatherDisplay:10.37,2013-11-20 01:06:00,
2013-11-19 19:11:00,63.1,39.0,30.02,SE,135,6.9,6.9,41,0.00,CLR,,0.00,0.0,WeatherDisplay:10.37,2013-11-20 01:11:00,
2013-11-19 19:16:00,63.1,39.0,30.02,SE,135,4.6,4.8,41,0.00,CLR,,0.00,0.0,WeatherDisplay:10.37,2013-11-20 01:16:00,
2013-11-19 19:21:00,63.0,38.9,30.02,ESE,112,5.8,5.8,41,0.00,CLR,,0.00,0.0,WeatherDisplay:10.37,2013-11-20 01:21:00,
2013-11-19 19:26:00,62.8,39.3,30.02,ESE,112,4.6,4.6,42,0.00,CLR,,0.00,0.0,WeatherDisplay:10.37,2013-11-20 01:26:00,
2013-11-19 19:31:00,62.4,39.0,30.03,ESE,112,6.9,6.9,42,0.00,CLR,,0.00,0.0,WeatherDisplay:10.37,2013-11-20 01:31:00,
2013-11-19 19:36:00,62.2,38.8,30.03,East,90,4.6,4.6,42,0.00,CLR,,0.00,0.0,WeatherDisplay:10.37,2013-11-20 01:36:00,
2013-11-19 19:41:00,61.9,39.1,30.03,ESE,112,5.8,5.8,43,0.00,CLR,,0.00,0.0,WeatherDisplay:10.37,2013-11-20 01:41:00,
2013-11-19 19:46:00,62.1,39.3,30.03,ESE,112,4.6,4.6,43,0.00,CLR,,0.00,0.0,WeatherDisplay:10.37,2013-11-20 01:46:00,
2013-11-19 19:51:00,61.7,39.6,30.03,ESE,112,6.9,6.9,44,0.00,CLR,,0.00,0.0,WeatherDisplay:10.37,2013-11-20 01:51:00,
2013-11-19 19:56:00,61.5,39.4,30.03,SSW,202,4.6,4.6,44,0.00,CLR,,0.00,0.0,WeatherDisplay:10.37,2013-11-20 01:56:00,
2013-11-19 20:01:00,61.5,39.4,30.03,WSW,248,5.8,5.8,44,0.00,CLR,,0.00,0.0,WeatherDisplay:10.37,2013-11-20 02:01:00,
2013-11-19 20:06:00,61.3,39.2,30.03,ESE,112,4.6,4.6,44,0.00,CLR,,0.00,0.0,WeatherDisplay:10.37,2013-11-20 02:06:00,
2013-11-19 20:11:00,61.3,39.8,30.03,East,90,4.6,4.6,45,0.00,CLR,,0.00,0.0,WeatherDisplay:10.37,2013-11-20 02:11:00,
2013-11-19 20:16:00,61.3,39.8,30.03,SE,135,4.9,4.9,45,0.00,CLR,,0.00,0.0,WeatherDisplay:10.37,2013-11-20 02:16:00,
2013-11-19 20:21:00,61.0,39.5,30.03,ESE,112,6.9,6.9,45,0.00,CLR,,0.00,0.0,WeatherDisplay:10.37,2013-11-20 02:21:00,
2013-11-19 20:26:00,60.8,39.3,30.03,SE,135,4.6,4.6,45,0.00,CLR,,0.00,0.0,WeatherDisplay:10.37,2013-11-20 02:26:00,
2013-11-19 20:31:00,61.0,39.5,30.03,SE,135,4.6,4.6,45,0.00,CLR,,0.00,0.0,WeatherDisplay:10.37,2013-11-20 02:31:00,
2013-11-19 20:36:00,60.8,39.9,30.03,ESE,112,4.6,4.6,46,0.00,CLR,,0.00,0.0,WeatherDisplay:10.37,2013-11-20 02:36:00,
2013-11-19 20:41:00,60.6,39.7,30.03,SSE,158,6.9,6.9,46,0.00,CLR,,0.00,0.0,WeatherDisplay:10.37,2013-11-20 02:41:00,
2013-11-19 20:46:00,60.6,39.7,30.03,SE,135,4.6,4.6,46,0.00,CLR,,0.00,0.0,WeatherDisplay:10.37,2013-11-20 02:46:00,
2013-11-19 20:51:00,60.4,39.5,30.05,ESE,112,6.9,6.9,46,0.00,CLR,,0.00,0.0,WeatherDisplay:10.37,2013-11-20 02:51:00,
2013-11-19 20:56:00,60.6,39.7,30.05,ESE,112,6.1,6.1,46,0.00,CLR,,0.00,0.0,WeatherDisplay:10.37,2013-11-20 02:56:00,
2013-11-19 21:01:00,60.4,40.1,30.05,SE,135,5.8,5.8,47,0.00,CLR,,0.00,0.0,WeatherDisplay:10.37,2013-11-20 03:01:00,
2013-11-19 21:06:00,60.3,39.9,30.05,ESE,112,5.8,5.8,47,0.00,CLR,,0.00,0.0,WeatherDisplay:10.37,2013-11-20 03:06:00,
2013-11-19 21:11:00,60.3,39.9,30.04,East,90,8.1,8.1,47,0.00,CLR,,0.00,0.0,WeatherDisplay:10.37,2013-11-20 03:11:00,
2013-11-19 21:16:00,60.1,39.8,30.04,ESE,112,8.1,8.1,47,0.00,CLR,,0.00,0.0,WeatherDisplay:10.37,2013-11-20 03:16:00,
2013-11-19 21:21:00,60.3,40.5,30.04,ESE,112,9.2,9.2,48,0.00,CLR,,0.00,0.0,WeatherDisplay:10.37,2013-11-20 03:21:00,
2013-11-19 21:26:00,60.1,40.3,30.04,SE,135,6.9,6.9,48,0.00,CLR,,0.00,0.0,WeatherDisplay:10.37,2013-11-20 03:26:00,
2013-11-19 21:31:00,59.9,40.1,30.04,ESE,112,8.1,8.1,48,0.00,CLR,,0.00,0.0,WeatherDisplay:10.37,2013-11-20 03:31:00,
2013-11-19 21:36:00,59.9,40.1,30.04,East,90,4.6,5.8,48,0.00,CLR,,0.00,0.0,WeatherDisplay:10.37,2013-11-20 03:36:00,
2013-11-19 21:41:00,59.9,40.7,30.04,ESE,112,6.9,6.9,49,0.00,CLR,,0.00,0.0,WeatherDisplay:10.37,2013-11-20 03:41:00,
2013-11-19 21:46:00,59.9,40.7,30.04,ESE,112,6.9,6.9,49,0.00,CLR,,0.00,0.0,WeatherDisplay:10.37,2013-11-20 03:46:00,
2013-11-19 21:51:00,59.7,40.5,30.04,SE,135,6.9,6.9,49,0.00,CLR,,0.00,0.0,WeatherDisplay:10.37,2013-11-20 03:51:00,
2013-11-19 21:56:00,59.5,40.3,30.04,ESE,112,5.8,5.8,49,0.00,CLR,,0.00,0.0,WeatherDisplay:10.37,2013-11-20 03:56:00,
2013-11-19 22:01:00,59.5,40.9,30.04,SE,135,9.2,9.2,50,0.00,CLR,,0.00,0.0,WeatherDisplay:10.37,2013-11-20 04:01:00,
2013-11-19 22:06:00,59.4,40.7,30.04,ESE,112,6.9,6.9,50,0.00,CLR,,0.00,0.0,WeatherDisplay:10.37,2013-11-20 04:06:00,
2013-11-19 22:11:00,59.5,40.9,30.04,ESE,112,6.9,6.9,50,0.00,CLR,,0.00,0.0,WeatherDisplay:10.37,2013-11-20 04:11:00,
2013-11-19 22:17:00,59.5,40.9,30.04,SE,135,4.6,5.8,50,0.00,CLR,,0.00,0.0,WeatherDisplay:10.37,2013-11-20 04:17:00,
2013-11-19 22:22:00,59.4,40.7,30.04,ESE,112,6.9,6.9,50,0.00,CLR,,0.00,0.0,WeatherDisplay:10.37,2013-11-20 04:22:00,
2013-11-19 22:27:00,59.4,40.7,30.03,SSE,158,6.3,6.3,50,0.00,CLR,,0.00,0.0,WeatherDisplay:10.37,2013-11-20 04:27:00,
2013-11-19 22:32:00,59.2,41.1,30.03,SE,135,8.1,8.1,51,0.00,CLR,,0.00,0.0,WeatherDisplay:10.37,2013-11-20 04:32:00,
2013-11-19 22:37:00,59.0,40.9,30.03,SE,135,9.2,9.2,51,0.00,CLR,,0.00,0.0,WeatherDisplay:10.37,2013-11-20 04:37:00,
2013-11-19 22:42:00,59.0,40.9,30.03,SE,135,8.1,8.1,51,0.00,CLR,,0.00,0.0,WeatherDisplay:10.37,2013-11-20 04:42:00,
2013-11-19 22:47:00,59.2,41.1,30.03,ESE,112,10.4,10.4,51,0.00,CLR,,0.00,0.0,WeatherDisplay:10.37,2013-11-20 04:47:00,
2013-11-19 22:52:00,59.2,41.1,30.03,SE,135,9.3,9.3,51,0.00,CLR,,0.00,0.0,WeatherDisplay:10.37,2013-11-20 04:52:00,
2013-11-19 22:57:00,59.0,40.9,30.03,South,180,15.0,15.0,51,0.00,CLR,,0.00,0.0,WeatherDisplay:10.37,2013-11-20 04:57:00,
2013-11-19 23:01:00,58.8,41.2,30.03,SE,135,5.8,5.8,52,0.00,CLR,,0.00,0.0,WeatherDisplay:10.37,2013-11-20 05:01:00,
2013-11-19 23:06:00,58.8,41.2,30.03,SE,135,6.0,6.0,52,0.00,CLR,,0.00,0.0,WeatherDisplay:10.37,2013-11-20 05:06:00,
2013-11-19 23:11:00,58.6,41.1,30.03,SE,135,9.2,9.2,52,0.00,CLR,,0.00,0.0,WeatherDisplay:10.37,2013-11-20 05:11:00,
2013-11-19 23:16:00,58.6,41.1,30.03,ESE,112,6.9,6.9,52,0.00,CLR,,0.00,0.0,WeatherDisplay:10.37,2013-11-20 05:16:00,
2013-11-19 23:21:00,58.5,41.4,30.03,SE,135,6.9,6.9,53,0.00,CLR,,0.00,0.0,WeatherDisplay:10.37,2013-11-20 05:21:00,
2013-11-19 23:26:00,58.5,41.4,30.03,SE,135,8.1,8.1,53,0.00,CLR,,0.00,0.0,WeatherDisplay:10.37,2013-11-20 05:26:00,
2013-11-19 23:31:00,58.5,41.4,30.03,South,180,10.4,10.4,53,0.00,CLR,,0.00,0.0,WeatherDisplay:10.37,2013-11-20 05:31:00,
2013-11-19 23:36:00,58.1,41.0,30.03,ESE,112,6.9,6.9,53,0.00,CLR,,0.00,0.0,WeatherDisplay:10.37,2013-11-20 05:36:00,
2013-11-19 23:41:00,57.9,41.4,30.03,ESE,112,9.2,9.2,54,0.00,CLR,,0.00,0.0,WeatherDisplay:10.37,2013-11-20 05:41:00,
2013-11-19 23:46:00,58.1,41.5,30.03,ESE,112,6.9,6.9,54,0.00,CLR,,0.00,0.0,WeatherDisplay:10.37,2013-11-20 05:46:00,
2013-11-19 23:51:00,57.9,41.4,30.04,SE,135,7.7,7.7,54,0.00,CLR,,0.00,0.0,WeatherDisplay:10.37,2013-11-20 05:51:00,
2013-11-19 23:56:00,57.7,41.2,30.04,ESE,112,9.2,9.2,54,0.00,CLR,,0.00,0.0,WeatherDisplay:10.37,2013-11-20 05:56:00,